Shady Grove, Pennsylvania
Current Conditions -  °F | °C
As of 1:53 PM on Friday 24 Oct 2014 (Local Time) from KHGR Reporting Station
Clear Clear  
Wind Chill: 64°   Ceiling: Unl
Heat Index: 64°   Visibility: 10mi
Dew Point: 35°   Wind: 14mph
Humidity: 34%   Direction: 320°NW
Pressure: 29.94"   Gusts: NA
Location:  39.78°N, 77.67°W
Report Text: KHGR 241753Z 32012KT 10SM CLR 18/02 A2994 RMK AO2 SLP146 T01780017 10178 20106 58021
Loading
Personal Weather Stations






























Interactive Weather Map
Tropical Storm Tracking
New forecast layout! Learn more

10-Day Weather Forecast

Advertisements
Track Severe Weather on mobile